Time;durP1;ratioP1;P1;durP2;ratioP2;P2;SDS_P1;SDS_P2;PMS_P1;PMS_P2;Temp;Humidity;BMP_temperature;BMP_pressure;BME280_temperature;BME280_humidity;BME280_pressure;Samples;Min_cycle;Max_cycle;Signal;HPM_P1;HPM_P2
2022/04/19 00:00:44;;;;;;;11.05;6.05;;;;;;;9.12;77.39;101486.72;5070756;28;20110;-49
2022/04/19 00:03:14;;;;;;;12.70;6.55;;;;;;;9.08;77.40;101485.19;5073698;28;20430;-58
2022/04/19 00:05:43;;;;;;;10.50;6.70;;;;;;;9.10;78.31;101484.19;5074034;28;20080;-50
2022/04/19 00:08:12;;;;;;;10.95;6.43;;;;;;;9.13;78.34;101483.19;5069507;28;20054;-52
2022/04/19 00:10:42;;;;;;;10.27;6.20;;;;;;;9.10;79.35;101480.72;5071725;28;20431;-58
2022/04/19 00:13:13;;;;;;;10.90;6.60;;;;;;;9.01;79.40;101479.38;5074376;28;20052;-58
2022/04/19 00:15:41;;;;;;;9.05;6.05;;;;;;;8.95;79.77;101480.53;5074298;28;20054;-50
2022/04/19 00:18:10;;;;;;;9.23;5.70;;;;;;;8.90;79.36;101479.06;5074218;28;20044;-49
2022/04/19 00:20:42;;;;;;;10.27;6.00;;;;;;;8.87;79.51;101482.69;5074150;28;20079;-50
2022/04/19 00:23:13;;;;;;;10.77;6.50;;;;;;;8.88;78.87;101471.25;5074225;28;20538;-52
2022/04/19 00:25:45;;;;;;;12.20;6.45;;;;;;;8.87;79.60;101487.09;5071821;28;20223;-52
2022/04/19 00:28:14;;;;;;;10.35;6.30;;;;;;;8.91;78.83;101483.38;5070375;28;20399;-52
2022/04/19 00:30:43;;;;;;;9.95;6.15;;;;;;;8.87;78.18;101472.19;5073389;28;20101;-51
2022/04/19 00:33:11;;;;;;;12.93;7.15;;;;;;;8.85;77.35;101474.03;5073977;28;20045;-51
2022/04/19 00:35:40;;;;;;;10.98;6.55;;;;;;;8.79;75.87;101467.31;5071985;28;20068;-51
2022/04/19 00:38:09;;;;;;;12.45;7.10;;;;;;;8.79;75.68;101474.31;5068759;28;20384;-58
2022/04/19 00:40:37;;;;;;;13.77;7.72;;;;;;;8.79;74.75;101469.94;5072259;28;20060;-52
2022/04/19 00:43:08;;;;;;;12.02;7.45;;;;;;;8.78;74.94;101462.13;5073805;28;20051;-52
2022/04/19 00:45:36;;;;;;;12.52;7.22;;;;;;;8.80;73.71;101461.13;5073964;28;20055;-52
2022/04/19 00:48:05;;;;;;;13.77;7.22;;;;;;;8.81;72.78;101459.38;5070877;28;20072;-53
2022/04/19 00:50:34;;;;;;;13.65;7.75;;;;;;;8.78;73.06;101459.50;5070041;28;20059;-52
2022/04/19 00:53:03;;;;;;;15.10;7.75;;;;;;;8.75;73.65;101457.03;5072128;28;20487;-53
2022/04/19 00:55:32;;;;;;;14.27;7.03;;;;;;;8.78;73.33;101462.13;5073765;28;20399;-57
2022/04/19 00:58:00;;;;;;;12.82;7.57;;;;;;;8.76;72.36;101464.00;5073198;28;20532;-58
2022/04/19 01:00:30;;;;;;;12.63;7.28;;;;;;;8.76;72.27;101469.22;5070165;28;20048;-57
2022/04/19 01:02:58;;;;;;;11.57;7.05;;;;;;;8.74;72.54;101456.19;5070850;28;20064;-55
2022/04/19 01:05:32;;;;;;;12.55;7.22;;;;;;;8.72;71.80;101467.69;5073585;28;20044;-53
2022/04/19 01:08:01;;;;;;;12.40;7.10;;;;;;;8.65;71.43;101468.91;5070380;28;20052;-58
2022/04/19 01:10:29;;;;;;;11.05;7.25;;;;;;;8.59;71.47;101470.88;5069113;28;20056;-51
2022/04/19 01:15:46;;;;;;;10.07;6.68;;;;;;;8.52;71.08;101456.38;5072583;28;20040;-56
2022/04/19 01:18:17;;;;;;;13.77;7.77;;;;;;;8.49;71.57;101466.13;5069037;28;20040;-57
2022/04/19 01:20:48;;;;;;;11.68;6.97;;;;;;;8.48;71.13;101464.44;5069539;28;20051;-58
2022/04/19 01:23:19;;;;;;;13.43;8.18;;;;;;;8.45;71.25;101461.03;5072993;28;20044;-58
2022/04/19 01:25:47;;;;;;;11.13;7.07;;;;;;;8.43;71.83;101459.38;5105493;28;20400;-49
2022/04/19 01:28:17;;;;;;;12.35;7.32;;;;;;;8.40;71.93;101462.16;5073171;28;20094;-51
2022/04/19 01:30:45;;;;;;;12.82;7.40;;;;;;;8.41;71.74;101458.59;5070095;28;20127;-52
2022/04/19 01:33:14;;;;;;;12.02;7.03;;;;;;;8.42;71.73;101462.91;5067152;28;20170;-58
2022/04/19 01:35:42;;;;;;;11.95;7.80;;;;;;;8.48;71.15;101461.81;5072030;28;20082;-58
2022/04/19 01:38:10;;;;;;;11.38;6.80;;;;;;;8.45;71.48;101458.41;5072625;28;20048;-58
2022/04/19 01:40:40;;;;;;;11.38;7.28;;;;;;;8.44;72.64;101463.72;5072593;28;20050;-58
2022/04/19 01:43:08;;;;;;;11.38;7.38;;;;;;;8.43;72.59;101462.84;5069582;28;20058;-58
2022/04/19 01:45:37;;;;;;;12.68;7.22;;;;;;;8.38;72.13;101456.13;5069304;28;20491;-58
2022/04/19 01:48:06;;;;;;;12.57;7.00;;;;;;;8.39;71.17;101452.56;5070241;28;20059;-57
2022/04/19 01:50:38;;;;;;;11.65;6.97;;;;;;;8.35;72.89;101451.03;5068596;28;20098;-53
2022/04/19 01:53:06;;;;;;;12.15;8.00;;;;;;;8.33;72.85;101444.97;5070301;28;20541;-52
2022/04/19 01:55:34;;;;;;;11.68;6.78;;;;;;;8.29;73.22;101447.75;5072916;28;20071;-51
2022/04/19 01:58:04;;;;;;;11.68;7.43;;;;;;;8.30;73.08;101451.22;5068678;28;20068;-53
2022/04/19 02:00:32;;;;;;;12.38;6.85;;;;;;;8.23;73.33;101445.41;5069064;28;20094;-58
2022/04/19 02:03:03;;;;;;;11.88;7.18;;;;;;;8.21;72.93;101442.00;5072199;28;20048;-53
2022/04/19 02:05:31;;;;;;;15.30;7.55;;;;;;;8.19;73.15;101441.22;5072163;28;20044;-58
2022/04/19 02:07:59;;;;;;;11.00;7.43;;;;;;;8.16;73.63;101443.16;5072166;28;20044;-51
2022/04/19 02:10:27;;;;;;;11.70;6.88;;;;;;;8.11;73.76;101438.09;5072171;28;20155;-58
2022/04/19 02:12:55;;;;;;;12.13;7.28;;;;;;;8.12;73.28;101442.44;5071883;28;20056;-53
2022/04/19 02:15:24;;;;;;;11.93;6.97;;;;;;;8.07;73.86;101439.16;5072191;28;20079;-50
2022/04/19 02:17:52;;;;;;;11.35;7.30;;;;;;;8.05;74.81;101443.63;5071953;28;20094;-57
2022/04/19 02:20:20;;;;;;;12.70;7.38;;;;;;;8.01;74.11;101432.44;5070166;28;20040;-56
2022/04/19 02:22:49;;;;;;;11.43;6.85;;;;;;;7.98;74.70;101435.19;5068105;28;20407;-58
2022/04/19 02:25:18;;;;;;;11.27;7.13;;;;;;;7.97;73.71;101438.72;5071812;28;20033;-53
2022/04/19 02:27:46;;;;;;;11.85;7.10;;;;;;;7.92;74.86;101433.72;5071920;28;20044;-48
2022/04/19 02:30:15;;;;;;;10.80;6.82;;;;;;;7.88;74.95;101437.38;5072117;28;20041;-57
2022/04/19 02:32:47;;;;;;;11.75;7.07;;;;;;;7.88;74.11;101433.88;5071618;28;20055;-51
2022/04/19 02:35:18;;;;;;;12.55;6.90;;;;;;;7.84;74.58;101438.44;5071638;28;20044;-58
2022/04/19 02:37:50;;;;;;;11.45;7.07;;;;;;;7.81;74.71;101435.94;5071281;28;20052;-58
2022/04/19 02:40:19;;;;;;;13.77;7.28;;;;;;;7.73;74.66;101433.66;5068006;28;20045;-51
2022/04/19 02:42:49;;;;;;;12.70;6.90;;;;;;;7.69;74.02;101433.84;5068083;28;20044;-52
2022/04/19 02:45:19;;;;;;;11.88;6.95;;;;;;;7.63;75.29;101426.28;5070262;28;20701;-59
2022/04/19 02:47:51;;;;;;;12.18;6.93;;;;;;;7.61;75.09;101427.19;5066227;28;20056;-57
2022/04/19 02:50:19;;;;;;;14.40;7.35;;;;;;;7.63;75.06;101423.66;5071221;28;20052;-58
2022/04/19 02:52:47;;;;;;;11.60;6.43;;;;;;;7.54;76.21;101420.53;5067799;28;20429;-57
2022/04/19 02:55:15;;;;;;;12.07;6.72;;;;;;;7.49;78.04;101417.25;5068869;28;20440;-50
2022/04/19 02:57:43;;;;;;;13.52;7.47;;;;;;;7.44;77.33;101417.47;5070873;28;20584;-56
2022/04/19 03:00:14;;;;;;;13.88;6.95;;;;;;;7.44;77.47;101427.06;5073180;28;20053;-50
2022/04/19 03:02:42;;;;;;;11.02;6.43;;;;;;;7.40;78.05;101425.50;5070119;28;20510;-53
2022/04/19 03:05:11;;;;;;;12.32;7.22;;;;;;;7.41;77.21;101429.81;5074854;28;20041;-59
2022/04/19 03:07:39;;;;;;;11.52;7.15;;;;;;;7.36;76.57;101427.41;5074234;28;20447;-58
2022/04/19 03:10:08;;;;;;;12.38;6.78;;;;;;;7.28;76.29;101424.25;5072050;28;20036;-58
2022/04/19 03:12:36;;;;;;;11.18;6.75;;;;;;;7.25;76.58;101424.38;5073683;28;20049;-51
2022/04/19 03:15:05;;;;;;;12.65;7.13;;;;;;;7.27;75.96;101422.56;5075504;28;20054;-57
2022/04/19 03:17:34;;;;;;;13.20;6.90;;;;;;;7.27;75.53;101426.00;5075336;28;20090;-57
2022/04/19 03:20:03;;;;;;;12.38;7.05;;;;;;;7.24;75.83;101428.75;5075339;28;20048;-57
2022/04/19 03:28:01;;;;;;;11.05;7.15;;;;;;;7.24;74.01;101422.66;5075071;28;20060;-57
2022/04/19 03:30:29;;;;;;;13.45;7.78;;;;;;;7.24;74.89;101426.16;5074135;28;20052;-57
2022/04/19 03:32:59;;;;;;;15.10;7.40;;;;;;;7.27;74.09;101425.16;5069102;28;20416;-52
2022/04/19 03:35:27;;;;;;;12.32;6.85;;;;;;;7.24;74.56;101422.66;5072546;28;20495;-50
2022/04/19 03:37:57;;;;;;;12.05;6.93;;;;;;;7.20;73.83;101421.09;5071611;28;20564;-51
2022/04/19 03:40:25;;;;;;;12.88;7.38;;;;;;;7.23;73.81;101420.97;5071346;28;20923;-50
2022/04/19 03:42:55;;;;;;;13.60;7.32;;;;;;;7.21;74.36;101426.28;5074482;28;20093;-57
2022/04/19 03:45:23;;;;;;;15.38;6.85;;;;;;;7.21;73.76;101425.41;5074683;28;20044;-57
2022/04/19 03:47:52;;;;;;;13.10;7.70;;;;;;;7.19;73.95;101419.41;5074667;28;20471;-58
2022/04/19 03:50:20;;;;;;;13.18;7.60;;;;;;;7.18;73.72;101429.00;5074836;28;20434;-58
2022/04/19 03:52:50;;;;;;;13.05;6.97;;;;;;;7.20;73.57;101435.03;5071289;28;20051;-58
2022/04/19 03:55:20;;;;;;;13.43;7.25;;;;;;;7.20;73.11;101429.81;5071343;28;20516;-53
2022/04/19 03:57:48;;;;;;;13.68;7.30;;;;;;;7.20;72.93;101423.69;5074619;28;20135;-58
2022/04/19 04:00:16;;;;;;;12.23;7.05;;;;;;;7.20;73.62;101432.41;5074928;28;20049;-53
2022/04/19 04:02:44;;;;;;;13.30;6.85;;;;;;;7.20;73.02;101426.31;5074589;28;20659;-52
2022/04/19 04:05:13;;;;;;;12.02;6.63;;;;;;;7.24;73.13;101433.13;5071223;28;20075;-49
2022/04/19 04:07:41;;;;;;;13.48;7.53;;;;;;;7.22;72.69;101438.44;5070305;28;20070;-54
2022/04/19 04:10:10;;;;;;;13.85;7.28;;;;;;;7.20;72.92;101431.56;5073615;28;20044;-58
2022/04/19 04:12:39;;;;;;;12.90;7.10;;;;;;;7.20;72.10;101428.94;5073293;28;20078;-58
2022/04/19 04:15:08;;;;;;;13.43;6.78;;;;;;;7.18;71.83;101434.25;5072026;28;20098;-50
2022/04/19 04:17:36;;;;;;;12.90;6.97;;;;;;;7.18;71.86;101439.47;5070581;28;20048;-53
2022/04/19 04:20:06;;;;;;;13.73;7.10;;;;;;;7.20;71.61;101436.78;5072854;28;20090;-52
2022/04/19 04:22:34;;;;;;;14.60;7.03;;;;;;;7.18;71.43;101441.25;5074243;28;20060;-57
2022/04/19 04:25:03;;;;;;;13.27;7.07;;;;;;;7.20;70.69;101447.25;5074206;28;20051;-57
2022/04/19 04:27:31;;;;;;;13.80;7.43;;;;;;;7.21;71.04;101446.34;5074108;28;20052;-49
2022/04/19 04:30:00;;;;;;;13.23;7.18;;;;;;;7.20;70.94;101442.88;5071347;28;20561;-57
2022/04/19 04:32:28;;;;;;;11.70;6.70;;;;;;;7.18;70.86;101447.31;5071097;28;20102;-54
2022/04/19 04:34:57;;;;;;;12.82;6.63;;;;;;;7.20;70.98;101452.47;5073093;28;20067;-52
2022/04/19 04:37:25;;;;;;;15.20;7.72;;;;;;;7.17;70.59;101453.50;5073815;28;20223;-52
2022/04/19 04:39:53;;;;;;;13.57;7.35;;;;;;;7.18;71.18;101459.56;5071881;28;20056;-52
2022/04/19 04:42:21;;;;;;;13.98;7.20;;;;;;;7.19;71.03;101458.66;5071335;28;20457;-48
2022/04/19 04:44:49;;;;;;;13.48;6.50;;;;;;;7.24;69.62;101459.28;5069259;28;20518;-52
2022/04/19 04:50:05;;;;;;;14.55;6.75;;;;;;;7.22;70.30;101455.91;5072393;28;20063;-58
2022/04/19 04:52:33;;;;;;;12.02;6.90;;;;;;;7.24;69.66;101456.66;5070079;28;20041;-51
2022/04/19 04:55:03;;;;;;;13.93;7.28;;;;;;;7.24;69.62;101459.28;5071859;28;20056;-51
2022/04/19 04:57:31;;;;;;;14.10;7.13;;;;;;;7.25;69.76;101459.25;5073271;28;20505;-51
2022/04/19 04:59:59;;;;;;;13.32;7.20;;;;;;;7.27;69.40;101454.78;5069213;28;20052;-58
2022/04/19 05:02:29;;;;;;;14.73;6.97;;;;;;;7.34;69.22;101455.38;5070630;28;20451;-51
2022/04/19 05:04:57;;;;;;;13.23;7.28;;;;;;;7.35;68.32;101466.69;5073449;28;20119;-52
2022/04/19 05:07:25;;;;;;;20.60;7.70;;;;;;;7.35;68.49;101458.84;5073571;28;20052;-51
2022/04/19 05:09:58;;;;;;;12.98;7.00;;;;;;;7.36;68.36;101464.03;5073540;28;20052;-56
2022/04/19 05:12:26;;;;;;;13.48;7.53;;;;;;;7.38;68.99;101461.34;5073320;28;20051;-50
2022/04/19 05:14:55;;;;;;;13.50;7.60;;;;;;;7.38;68.90;101461.34;5073145;28;20529;-58
2022/04/19 05:17:23;;;;;;;13.90;7.10;;;;;;;7.40;68.90;101469.97;5073372;28;20184;-58
2022/04/19 05:19:53;;;;;;;13.60;7.15;;;;;;;7.43;68.52;101467.22;5073272;28;20082;-58
2022/04/19 05:22:22;;;;;;;14.60;6.93;;;;;;;7.51;68.53;101470.41;5068922;28;20048;-51
2022/04/19 05:24:50;;;;;;;13.07;7.22;;;;;;;7.51;68.40;101466.91;5069176;28;20464;-52
2022/04/19 05:27:18;;;;;;;14.45;7.57;;;;;;;7.52;69.06;101459.00;5072982;28;20063;-49
2022/04/19 05:29:46;;;;;;;14.75;7.75;;;;;;;7.55;68.56;101464.13;5072723;28;20093;-58
2022/04/19 05:32:15;;;;;;;14.18;7.65;;;;;;;7.59;68.81;101467.44;5072914;28;20041;-57
2022/04/19 05:34:43;;;;;;;14.82;7.60;;;;;;;7.65;68.71;101453.22;5073126;28;20041;-49
2022/04/19 05:37:12;;;;;;;19.85;8.10;;;;;;;7.67;68.61;101454.03;5072900;28;20110;-50
2022/04/19 05:39:40;;;;;;;16.52;7.82;;;;;;;7.69;68.65;101452.19;5072083;28;20051;-56
2022/04/19 05:42:08;;;;;;;15.13;7.93;;;;;;;7.76;69.11;101457.09;5069593;28;20087;-57
2022/04/19 05:44:37;;;;;;;14.65;8.60;;;;;;;7.94;68.93;101457.22;5068445;28;20365;-57
2022/04/19 05:47:05;;;;;;;15.60;7.90;;;;;;;7.90;68.89;101450.41;5070657;28;20048;-57
2022/04/19 05:49:33;;;;;;;16.63;7.57;;;;;;;7.93;69.47;101452.88;5072283;28;20058;-57
2022/04/19 05:52:01;;;;;;;16.48;8.43;;;;;;;7.97;69.07;101450.97;5072312;28;20043;-57
2022/04/19 05:54:31;;;;;;;17.38;8.23;;;;;;;8.01;69.96;101450.75;5069243;28;20091;-57
2022/04/19 05:56:59;;;;;;;16.58;8.63;;;;;;;8.10;70.05;101454.75;5069591;28;20087;-50
2022/04/19 05:59:27;;;;;;;14.52;8.00;;;;;;;8.14;69.89;101451.09;5072841;28;20529;-57
2022/04/19 06:04:59;;;;;;;14.25;7.70;;;;;;;8.27;70.54;101452.19;5067997;28;20483;-47
2022/04/19 06:07:30;;;;;;;15.80;8.15;;;;;;;8.38;70.92;101451.72;5070145;28;20048;-49
2022/04/19 06:10:00;;;;;;;15.50;8.18;;;;;;;8.49;70.68;101453.88;5068425;28;20044;-58
2022/04/19 06:12:28;;;;;;;18.20;9.32;;;;;;;8.63;71.08;101453.25;5071249;28;20036;-58
2022/04/19 06:14:56;;;;;;;18.58;8.43;;;;;;;8.74;69.33;101458.81;5072287;28;20426;-58
2022/04/19 06:17:27;;;;;;;15.13;8.45;;;;;;;8.86;68.34;101457.41;5072151;28;20048;-58
2022/04/19 06:19:55;;;;;;;15.70;8.23;;;;;;;9.05;67.66;101454.72;5072097;28;20049;-58
2022/04/19 06:22:23;;;;;;;15.93;8.93;;;;;;;9.14;67.63;101453.41;5070048;28;20055;-58
2022/04/19 06:24:51;;;;;;;13.65;7.93;;;;;;;9.21;68.36;101462.66;5068088;28;20049;-59
2022/04/19 06:27:20;;;;;;;15.43;8.68;;;;;;;9.34;68.21;101469.94;5071223;28;20049;-58
2022/04/19 06:29:50;;;;;;;16.27;8.18;;;;;;;9.55;65.05;101457.50;5067264;28;20044;-58
2022/04/19 06:32:18;;;;;;;15.52;8.15;;;;;;;9.73;63.98;101456.53;5069986;28;20055;-53
2022/04/19 06:34:46;;;;;;;15.65;8.45;;;;;;;9.95;63.01;101456.28;5071247;28;20106;-50
2022/04/19 06:37:14;;;;;;;17.08;8.82;;;;;;;10.01;62.90;101459.50;5071372;28;20044;-52
2022/04/19 06:39:42;;;;;;;16.33;9.25;;;;;;;10.11;63.77;101461.56;5067998;28;20037;-52
2022/04/19 06:42:11;;;;;;;16.02;9.00;;;;;;;10.29;62.15;101457.13;5068605;28;20053;-49
2022/04/19 06:44:40;;;;;;;20.65;10.00;;;;;;;10.43;63.09;101458.16;5070637;28;20071;-48
2022/04/19 06:47:08;;;;;;;17.48;9.73;;;;;;;10.55;63.74;101460.16;5067881;28;20051;-50
2022/04/19 06:49:38;;;;;;;17.48;9.27;;;;;;;10.76;61.68;101462.50;5068771;28;20349;-48
2022/04/19 06:52:06;;;;;;;14.63;8.63;;;;;;;10.90;60.02;101467.81;5071774;28;20040;-51
2022/04/19 06:54:34;;;;;;;14.93;8.10;;;;;;;10.99;59.08;101469.09;5071798;28;20083;-53
2022/04/19 06:57:03;;;;;;;15.93;8.80;;;;;;;11.16;58.65;101466.31;5071522;28;20048;-50
2022/04/19 06:59:31;;;;;;;16.35;9.00;;;;;;;11.22;59.14;101466.91;5071749;28;20128;-54
2022/04/19 07:02:00;;;;;;;15.35;9.25;;;;;;;11.45;59.95;101470.84;5071718;28;20072;-54
2022/04/19 07:04:29;;;;;;;15.85;9.32;;;;;;;11.57;59.55;101478.00;5067122;28;20114;-52
2022/04/19 07:06:57;;;;;;;14.43;8.93;;;;;;;11.76;60.11;101477.75;5067203;28;20502;-52
2022/04/19 07:09:26;;;;;;;16.33;9.32;;;;;;;11.89;60.32;101466.47;5071871;28;20053;-50
2022/04/19 07:11:54;;;;;;;14.82;9.07;;;;;;;12.05;59.95;101469.91;5071543;28;20049;-52
2022/04/19 07:14:22;;;;;;;15.38;9.05;;;;;;;12.26;59.01;101470.38;5071525;28;20064;-53
2022/04/19 07:16:52;;;;;;;14.88;8.70;;;;;;;12.43;58.30;101471.94;5071434;28;20384;-52
2022/04/19 07:19:21;;;;;;;20.50;9.68;;;;;;;12.62;58.24;101476.06;5071518;28;20045;-50
2022/04/19 07:27:23;;;;;;;16.08;9.20;;;;;;;13.16;56.97;101481.34;5071407;28;20052;-51
2022/04/19 07:29:51;;;;;;;14.93;8.35;;;;;;;13.35;55.83;101478.38;5071329;28;20044;-55
2022/04/19 07:32:19;;;;;;;14.63;9.02;;;;;;;13.53;55.63;101484.19;5071780;28;20529;-59
2022/04/19 07:34:49;;;;;;;14.57;8.10;;;;;;;13.68;54.21;101484.97;5071119;28;20060;-59
2022/04/19 07:37:18;;;;;;;15.05;8.70;;;;;;;13.80;55.38;101482.44;5070738;28;20041;-59
2022/04/19 07:39:46;;;;;;;13.65;8.85;;;;;;;14.02;55.83;101487.94;5070982;28;20569;-58
2022/04/19 07:42:14;;;;;;;14.77;8.07;;;;;;;14.22;52.98;101491.00;5070933;28;20067;-58
2022/04/19 07:44:44;;;;;;;14.38;8.00;;;;;;;14.34;52.48;101481.31;5066677;28;20045;-59
2022/04/19 07:47:14;;;;;;;15.38;8.65;;;;;;;14.52;51.86;101489.78;5072477;28;20088;-52
2022/04/19 07:49:43;;;;;;;16.08;8.52;;;;;;;14.72;52.05;101491.00;5074935;28;20543;-53
2022/04/19 07:52:12;;;;;;;13.30;7.30;;;;;;;14.82;49.02;101492.03;5072016;28;20064;-53
2022/04/19 07:54:40;;;;;;;13.32;7.47;;;;;;;15.02;50.58;101492.34;5071219;28;20132;-52
2022/04/19 07:57:09;;;;;;;13.65;7.15;;;;;;;15.17;48.90;101495.69;5073929;28;20064;-53
2022/04/19 07:59:37;;;;;;;15.35;8.48;;;;;;;15.21;49.20;101487.41;5074828;28;20048;-52
2022/04/19 08:02:05;;;;;;;12.50;7.32;;;;;;;15.46;49.35;101495.28;5074538;28;20056;-54
2022/04/19 08:04:34;;;;;;;13.82;7.57;;;;;;;15.67;47.83;101488.38;5074904;28;20094;-53
2022/04/19 08:07:02;;;;;;;13.88;7.82;;;;;;;15.83;47.26;101488.06;5074525;28;20048;-53
2022/04/19 08:09:32;;;;;;;13.68;7.22;;;;;;;16.02;47.11;101482.19;5074304;28;20048;-52
2022/04/19 08:12:00;;;;;;;14.43;7.53;;;;;;;16.06;45.58;101480.13;5074674;28;20135;-54
2022/04/19 08:14:28;;;;;;;12.95;7.43;;;;;;;16.12;46.29;101481.47;5071685;28;20430;-52
2022/04/19 08:16:56;;;;;;;12.65;6.95;;;;;;;16.21;46.17;101483.38;5070225;28;20102;-53
2022/04/19 08:19:24;;;;;;;13.60;8.18;;;;;;;16.45;45.67;101480.56;5071178;28;20054;-54
2022/04/19 08:21:52;;;;;;;13.50;7.22;;;;;;;16.55;44.69;101481.53;5074206;28;20865;-53
2022/04/19 08:24:21;;;;;;;15.13;7.35;;;;;;;16.68;44.10;101478.72;5074433;28;20429;-54
2022/04/19 08:26:50;;;;;;;13.90;6.95;;;;;;;16.81;44.01;101477.72;5074487;28;20379;-53
2022/04/19 08:29:18;;;;;;;14.40;7.30;;;;;;;16.92;43.48;101475.06;5074225;28;20518;-53
2022/04/19 08:31:47;;;;;;;13.80;7.65;;;;;;;17.06;42.68;101472.09;5074425;28;20056;-52
2022/04/19 08:34:15;;;;;;;14.23;6.90;;;;;;;17.18;43.67;101474.75;5073777;28;20065;-52
2022/04/19 08:36:44;;;;;;;13.52;6.88;;;;;;;17.24;42.18;101474.22;5073794;28;20050;-51
2022/04/19 08:39:12;;;;;;;12.40;6.68;;;;;;;17.34;42.63;101467.16;5073966;28;20102;-54
2022/04/19 08:41:40;;;;;;;12.50;7.28;;;;;;;17.50;41.79;101468.50;5073936;28;20053;-54
2022/04/19 08:44:10;;;;;;;14.32;6.43;;;;;;;17.67;43.49;101470.59;5073780;28;20048;-52
2022/04/19 08:46:40;;;;;;;15.00;7.20;;;;;;;17.77;41.49;101473.28;5070342;28;20117;-54
2022/04/19 08:49:10;;;;;;;13.52;6.10;;;;;;;17.84;39.44;101476.28;5067728;28;20756;-51
2022/04/19 08:51:40;;;;;;;11.95;6.20;;;;;;;17.78;39.92;101479.44;5073651;28;20045;-51
2022/04/19 08:59:43;;;;;;;11.40;5.70;;;;;;;17.98;39.40;101473.28;5073359;28;20136;-52
2022/04/19 09:02:21;;;;;;;12.57;6.03;;;;;;;18.07;37.85;101469.81;5073337;28;20048;-54
2022/04/19 09:04:50;;;;;;;12.05;6.38;;;;;;;18.11;38.99;101473.06;5073559;28;20071;-49
2022/04/19 09:07:18;;;;;;;11.40;6.43;;;;;;;18.31;38.00;101474.00;5073442;28;20772;-53
2022/04/19 09:09:59;;;;;;;11.82;6.35;;;;;;;18.53;39.88;101472.91;5073333;28;20052;-52
2022/04/19 09:12:28;;;;;;;11.32;6.18;;;;;;;18.73;37.24;101476.47;5073429;28;20123;-53
2022/04/19 09:14:59;;;;;;;10.25;5.22;;;;;;;18.69;37.73;101467.06;5073273;28;20471;-51
2022/04/19 09:17:32;;;;;;;10.25;4.93;;;;;;;18.73;37.03;101467.59;5071018;28;20043;-50
2022/04/19 09:20:15;;;;;;;11.30;5.30;;;;;;;18.77;35.40;101470.84;5065633;28;20059;-51
2022/04/19 09:22:44;;;;;;;11.45;5.57;;;;;;;18.95;36.57;101463.03;5073244;28;20507;-52
2022/04/19 09:25:20;;;;;;;13.18;5.28;;;;;;;19.03;36.64;101464.03;5072751;28;20098;-52
2022/04/19 09:27:50;;;;;;;10.02;5.15;;;;;;;19.29;35.75;101465.28;5073089;28;20426;-52
2022/04/19 09:30:21;;;;;;;10.48;4.80;;;;;;;19.35;35.40;101460.22;5069629;28;20036;-58
2022/04/19 09:33:05;;;;;;;11.75;4.90;;;;;;;19.54;35.09;101459.34;5066820;28;20053;-58
2022/04/19 09:35:35;;;;;;;11.07;5.43;;;;;;;19.51;33.63;101462.28;5072712;28;20044;-58
2022/04/19 09:38:03;;;;;;;10.60;5.03;;;;;;;19.67;34.87;101453.66;5072811;28;20040;-52
2022/04/19 09:40:33;;;;;;;11.27;4.65;;;;;;;19.73;34.65;101455.78;5072714;28;20044;-54
2022/04/19 09:43:13;;;;;;;15.27;5.15;;;;;;;19.59;33.79;101453.56;5072137;28;20404;-52
2022/04/19 09:45:54;;;;;;;10.10;4.60;;;;;;;19.86;34.75;101449.31;5072242;28;20049;-52
2022/04/19 09:48:24;;;;;;;11.85;4.03;;;;;;;19.93;33.38;101437.03;5072519;28;20040;-53
2022/04/19 09:50:58;;;;;;;10.82;4.97;;;;;;;19.90;33.63;101445.34;5069481;28;20068;-53
2022/04/19 09:53:28;;;;;;;10.50;5.22;;;;;;;19.99;32.86;101432.94;5068286;28;20503;-52
2022/04/19 09:55:58;;;;;;;10.68;5.05;;;;;;;20.11;33.42;101431.78;5071911;28;20497;-54
2022/04/19 09:58:27;;;;;;;11.82;4.88;;;;;;;20.22;33.42;101436.91;5072553;28;20109;-54
2022/04/19 10:00:57;;;;;;;11.77;4.72;;;;;;;20.14;33.99;101427.94;5072238;28;20044;-55
2022/04/19 10:08:59;;;;;;;11.20;5.25;;;;;;;20.68;33.54;101428.03;5069518;28;20045;-53
2022/04/19 10:11:29;;;;;;;10.82;5.45;;;;;;;20.63;32.40;101420.50;5067663;28;20056;-53
2022/04/19 10:13:58;;;;;;;11.57;5.22;;;;;;;20.61;32.96;101427.81;5069999;28;20143;-53
2022/04/19 10:16:30;;;;;;;10.43;5.13;;;;;;;20.82;32.81;101424.88;5072359;28;20123;-53
2022/04/19 10:18:59;;;;;;;12.02;5.32;;;;;;;20.85;32.15;101421.06;5070806;28;20044;-52
2022/04/19 10:21:34;;;;;;;11.52;5.45;;;;;;;20.72;31.86;101427.63;5067768;28;20052;-53
2022/04/19 10:24:11;;;;;;;10.80;5.07;;;;;;;20.86;32.57;101428.06;5069539;28;20448;-53
2022/04/19 10:26:45;;;;;;;11.48;5.15;;;;;;;20.94;32.75;101428.13;5071985;28;20098;-52
2022/04/19 10:29:19;;;;;;;14.13;5.95;;;;;;;20.96;32.78;101422.66;5071784;28;20106;-53
2022/04/19 10:32:01;;;;;;;11.23;5.35;;;;;;;20.91;32.98;101421.28;5072020;28;20052;-53
2022/04/19 10:34:31;;;;;;;10.50;4.65;;;;;;;21.35;32.51;101409.75;5071819;28;20040;-54
2022/04/19 10:37:19;;;;;;;10.50;5.20;;;;;;;21.63;31.43;101411.44;5068217;28;20041;-54
2022/04/19 10:39:49;;;;;;;11.40;4.50;;;;;;;21.59;31.22;101408.22;5067861;28;21088;-54
2022/04/19 10:42:29;;;;;;;10.02;5.22;;;;;;;21.51;30.98;101408.97;5070310;28;20048;-53
2022/04/19 10:44:57;;;;;;;10.23;4.75;;;;;;;21.38;29.99;101408.59;5066408;28;20063;-55
2022/04/19 10:47:28;;;;;;;11.27;4.65;;;;;;;21.56;29.80;101409.38;5070367;28;20037;-54
2022/04/19 10:50:01;;;;;;;11.05;4.75;;;;;;;21.77;30.38;101400.97;5071672;28;20091;-54
2022/04/19 10:52:52;;;;;;;10.35;4.72;;;;;;;21.89;29.70;101408.72;5071753;28;20083;-55
2022/04/19 10:55:29;;;;;;;9.80;4.40;;;;;;;22.00;30.33;101403.06;5069620;28;20499;-55
2022/04/19 10:58:17;;;;;;;9.45;4.85;;;;;;;22.16;29.85;101407.66;5070897;28;20060;-55
2022/04/19 11:00:49;;;;;;;11.27;4.28;;;;;;;21.90;28.64;101405.03;5092057;28;20070;-54
2022/04/19 11:03:47;;;;;;;9.23;4.30;;;;;;;21.94;29.40;101401.03;5091846;28;20457;-53
2022/04/19 11:06:38;;;;;;;11.40;5.15;;;;;;;22.21;29.30;101391.94;5092171;28;20138;-54
2022/04/19 11:09:26;;;;;;;10.18;4.70;;;;;;;22.39;29.33;101391.81;5090582;28;20139;-54
2022/04/19 11:11:56;;;;;;;10.35;4.82;;;;;;;22.66;29.32;101405.09;5088972;28;20056;-55
2022/04/19 11:14:40;;;;;;;11.70;5.05;;;;;;;22.96;29.26;101403.59;5086830;28;20044;-48
2022/04/19 11:17:28;;;;;;;11.02;4.90;;;;;;;23.10;27.74;101394.03;5090446;28;20052;-53
2022/04/19 11:20:15;;;;;;;10.07;4.20;;;;;;;22.83;27.77;101397.91;5093128;28;20044;-55
2022/04/19 11:22:51;;;;;;;9.30;4.97;;;;;;;22.59;28.07;101396.88;5094974;28;20047;-54
2022/04/19 11:25:39;;;;;;;10.73;5.20;;;;;;;23.14;28.34;101400.78;5091034;28;20044;-55
2022/04/19 11:28:22;;;;;;;12.02;5.18;;;;;;;23.15;28.40;101405.13;5091827;28;20048;-56
2022/04/19 11:31:14;;;;;;;12.90;5.85;;;;;;;23.10;27.93;101392.19;5092313;28;20061;-55
2022/04/19 11:33:42;;;;;;;8.75;4.65;;;;;;;23.00;27.84;101380.81;5088228;28;20402;-56
2022/04/19 11:36:15;;;;;;;12.20;6.05;;;;;;;23.09;28.88;101392.34;5094094;28;20044;-53
2022/04/19 11:38:47;;;;;;;10.65;4.72;;;;;;;23.45;27.89;101386.59;5090745;28;20044;-55
2022/04/19 11:46:55;;;;;;;10.70;4.85;;;;;;;23.98;27.10;101381.56;5089878;28;20550;-55
2022/04/19 11:49:28;;;;;;;9.77;4.38;;;;;;;24.28;27.51;101381.75;5090923;28;20101;-60
2022/04/19 11:51:59;;;;;;;10.32;4.88;;;;;;;24.17;26.73;101388.34;5095472;28;20074;-59
2022/04/19 11:54:28;;;;;;;9.57;4.90;;;;;;;23.95;26.77;101379.25;5094998;28;20048;-59
2022/04/19 11:56:58;;;;;;;8.55;3.72;;;;;;;24.04;25.33;101382.75;5094648;28;20056;-58
2022/04/19 11:59:30;;;;;;;9.73;4.85;;;;;;;24.06;26.37;101384.22;5095305;28;20044;-58
2022/04/19 12:01:59;;;;;;;9.43;4.20;;;;;;;23.89;26.73;101380.78;5095071;28;20129;-58
2022/04/19 12:04:28;;;;;;;9.23;3.92;;;;;;;23.78;27.13;101384.66;5095003;28;20126;-58
2022/04/19 12:07:01;;;;;;;8.90;4.63;;;;;;;23.93;27.76;101376.75;5094786;28;20499;-58
2022/04/19 12:09:31;;;;;;;10.73;5.13;;;;;;;23.89;27.89;101378.09;5091348;28;20048;-58
2022/04/19 12:12:06;;;;;;;7.85;4.53;;;;;;;24.21;27.65;101367.34;5091964;28;20052;-59